sensor_id;sensor_type;location;lat;lon;timestamp;temperature;humidity
7844;DHT22;3967;48.702;9.326;2022-07-01T00:02:03;18.20;99.90
7844;DHT22;3967;48.702;9.326;2022-07-01T00:04:30;18.30;99.90
7844;DHT22;3967;48.702;9.326;2022-07-01T00:06:56;18.10;99.90
7844;DHT22;3967;48.702;9.326;2022-07-01T00:09:24;18.10;99.90
7844;DHT22;3967;48.702;9.326;2022-07-01T00:11:51;18.20;99.90
7844;DHT22;3967;48.702;9.326;2022-07-01T00:14:17;18.20;99.90
7844;DHT22;3967;48.702;9.326;2022-07-01T00:16:44;18.30;99.90
7844;DHT22;3967;48.702;9.326;2022-07-01T00:19:11;18.30;99.90
7844;DHT22;3967;48.702;9.326;2022-07-01T00:21:38;18.00;99.90
7844;DHT22;3967;48.702;9.326;2022-07-01T00:24:05;18.00;99.90
7844;DHT22;3967;48.702;9.326;2022-07-01T00:26:33;18.10;99.90
7844;DHT22;3967;48.702;9.326;2022-07-01T00:29:00;18.00;99.90
7844;DHT22;3967;48.702;9.326;2022-07-01T00:31:27;18.00;99.90
7844;DHT22;3967;48.702;9.326;2022-07-01T00:33:54;18.10;99.90
7844;DHT22;3967;48.702;9.326;2022-07-01T00:36:20;18.10;99.90
7844;DHT22;3967;48.702;9.326;2022-07-01T00:38:51;18.20;99.90
7844;DHT22;3967;48.702;9.326;2022-07-01T00:41:18;18.10;99.90
7844;DHT22;3967;48.702;9.326;2022-07-01T00:43:45;18.10;99.90
7844;DHT22;3967;48.702;9.326;2022-07-01T00:46:21;18.10;99.90
7844;DHT22;3967;48.702;9.326;2022-07-01T00:48:49;18.00;99.90
7844;DHT22;3967;48.702;9.326;2022-07-01T00:51:18;18.00;99.90
7844;DHT22;3967;48.702;9.326;2022-07-01T00:53:46;17.60;99.90
7844;DHT22;3967;48.702;9.326;2022-07-01T00:56:13;17.80;99.90
7844;DHT22;3967;48.702;9.326;2022-07-01T00:58:40;17.90;99.90
7844;DHT22;3967;48.702;9.326;2022-07-01T01:01:07;17.60;99.90
7844;DHT22;3967;48.702;9.326;2022-07-01T01:03:34;17.80;99.90
7844;DHT22;3967;48.702;9.326;2022-07-01T01:06:03;17.70;99.90
7844;DHT22;3967;48.702;9.326;2022-07-01T01:08:30;17.80;99.90
7844;DHT22;3967;48.702;9.326;2022-07-01T01:10:57;17.80;99.90
7844;DHT22;3967;48.702;9.326;2022-07-01T01:13:24;17.80;99.90
7844;DHT22;3967;48.702;9.326;2022-07-01T01:15:51;17.80;99.90
7844;DHT22;3967;48.702;9.326;2022-07-01T01:18:17;17.80;99.90
7844;DHT22;3967;48.702;9.326;2022-07-01T01:20:44;17.80;99.90
7844;DHT22;3967;48.702;9.326;2022-07-01T01:23:11;17.80;99.90
7844;DHT22;3967;48.702;9.326;2022-07-01T01:25:37;17.70;99.90
7844;DHT22;3967;48.702;9.326;2022-07-01T01:28:04;17.70;99.90
7844;DHT22;3967;48.702;9.326;2022-07-01T01:30:31;17.60;99.90
7844;DHT22;3967;48.702;9.326;2022-07-01T01:32:58;17.40;99.90
7844;DHT22;3967;48.702;9.326;2022-07-01T01:35:24;17.30;99.90
7844;DHT22;3967;48.702;9.326;2022-07-01T01:37:51;17.30;99.90
7844;DHT22;3967;48.702;9.326;2022-07-01T01:40:18;17.10;99.90
7844;DHT22;3967;48.702;9.326;2022-07-01T01:42:45;17.20;99.90
7844;DHT22;3967;48.702;9.326;2022-07-01T01:45:13;17.20;99.90
7844;DHT22;3967;48.702;9.326;2022-07-01T01:47:41;17.10;99.90
7844;DHT22;3967;48.702;9.326;2022-07-01T01:50:09;17.20;99.90
7844;DHT22;3967;48.702;9.326;2022-07-01T01:52:37;16.90;99.90
7844;DHT22;3967;48.702;9.326;2022-07-01T01:55:05;16.70;99.90
7844;DHT22;3967;48.702;9.326;2022-07-01T01:57:32;16.70;99.90
7844;DHT22;3967;48.702;9.326;2022-07-01T01:59:59;16.50;99.90
7844;DHT22;3967;48.702;9.326;2022-07-01T02:02:26;16.50;99.90
7844;DHT22;3967;48.702;9.326;2022-07-01T02:04:52;16.60;99.90
7844;DHT22;3967;48.702;9.326;2022-07-01T02:07:19;16.70;99.90
7844;DHT22;3967;48.702;9.326;2022-07-01T02:09:46;16.60;99.90
7844;DHT22;3967;48.702;9.326;2022-07-01T02:12:13;16.90;99.90
7844;DHT22;3967;48.702;9.326;2022-07-01T02:14:39;16.90;99.90
7844;DHT22;3967;48.702;9.326;2022-07-01T02:17:07;16.90;99.90
7844;DHT22;3967;48.702;9.326;2022-07-01T02:19:34;17.10;99.90
7844;DHT22;3967;48.702;9.326;2022-07-01T02:22:00;16.70;99.90
7844;DHT22;3967;48.702;9.326;2022-07-01T02:24:27;16.60;99.90
7844;DHT22;3967;48.702;9.326;2022-07-01T02:26:54;16.80;99.90
7844;DHT22;3967;48.702;9.326;2022-07-01T02:29:21;17.00;99.90
7844;DHT22;3967;48.702;9.326;2022-07-01T02:31:48;17.10;99.90
7844;DHT22;3967;48.702;9.326;2022-07-01T02:34:15;17.20;99.90
7844;DHT22;3967;48.702;9.326;2022-07-01T02:36:42;17.30;99.90
7844;DHT22;3967;48.702;9.326;2022-07-01T02:39:09;17.30;99.90
7844;DHT22;3967;48.702;9.326;2022-07-01T02:41:35;17.40;99.90
7844;DHT22;3967;48.702;9.326;2022-07-01T02:44:22;17.20;99.90
7844;DHT22;3967;48.702;9.326;2022-07-01T02:46:49;17.20;99.90
7844;DHT22;3967;48.702;9.326;2022-07-01T02:49:16;17.10;99.90
7844;DHT22;3967;48.702;9.326;2022-07-01T02:51:42;17.00;99.90
7844;DHT22;3967;48.702;9.326;2022-07-01T02:54:09;16.80;99.90
7844;DHT22;3967;48.702;9.326;2022-07-01T02:56:36;16.90;99.90
7844;DHT22;3967;48.702;9.326;2022-07-01T02:59:02;17.10;99.90
7844;DHT22;3967;48.702;9.326;2022-07-01T03:01:29;17.10;99.90
7844;DHT22;3967;48.702;9.326;2022-07-01T03:03:56;16.90;99.90
7844;DHT22;3967;48.702;9.326;2022-07-01T03:06:23;17.00;99.90
7844;DHT22;3967;48.702;9.326;2022-07-01T03:08:49;17.00;99.90
7844;DHT22;3967;48.702;9.326;2022-07-01T03:11:16;17.00;99.90
7844;DHT22;3967;48.702;9.326;2022-07-01T03:13:43;17.10;99.90
7844;DHT22;3967;48.702;9.326;2022-07-01T03:16:09;17.20;99.90
7844;DHT22;3967;48.702;9.326;2022-07-01T03:18:36;17.20;99.90
7844;DHT22;3967;48.702;9.326;2022-07-01T03:21:03;17.10;99.90
7844;DHT22;3967;48.702;9.326;2022-07-01T03:23:30;17.10;99.90
7844;DHT22;3967;48.702;9.326;2022-07-01T03:25:56;17.00;99.90
7844;DHT22;3967;48.702;9.326;2022-07-01T03:28:23;17.10;99.90
7844;DHT22;3967;48.702;9.326;2022-07-01T03:30:50;17.20;99.90
7844;DHT22;3967;48.702;9.326;2022-07-01T03:33:17;17.10;99.90
7844;DHT22;3967;48.702;9.326;2022-07-01T03:35:43;17.10;99.90
7844;DHT22;3967;48.702;9.326;2022-07-01T03:38:12;17.10;99.90
7844;DHT22;3967;48.702;9.326;2022-07-01T03:40:39;17.00;99.90
7844;DHT22;3967;48.702;9.326;2022-07-01T03:43:06;16.80;99.90
7844;DHT22;3967;48.702;9.326;2022-07-01T03:45:33;16.90;99.90
7844;DHT22;3967;48.702;9.326;2022-07-01T03:48:00;17.00;99.90
7844;DHT22;3967;48.702;9.326;2022-07-01T03:50:27;16.90;99.90
7844;DHT22;3967;48.702;9.326;2022-07-01T03:52:54;16.90;99.90
7844;DHT22;3967;48.702;9.326;2022-07-01T03:55:40;16.70;99.90
7844;DHT22;3967;48.702;9.326;2022-07-01T03:58:07;16.60;99.90
7844;DHT22;3967;48.702;9.326;2022-07-01T04:00:35;16.50;99.90
7844;DHT22;3967;48.702;9.326;2022-07-01T04:03:04;16.60;99.90
7844;DHT22;3967;48.702;9.326;2022-07-01T04:05:35;16.60;99.90
7844;DHT22;3967;48.702;9.326;2022-07-01T04:08:03;16.60;99.90
7844;DHT22;3967;48.702;9.326;2022-07-01T04:10:32;16.70;99.90
7844;DHT22;3967;48.702;9.326;2022-07-01T04:13:02;16.70;99.90
7844;DHT22;3967;48.702;9.326;2022-07-01T04:15:49;16.70;99.90
7844;DHT22;3967;48.702;9.326;2022-07-01T04:18:16;16.70;99.90
7844;DHT22;3967;48.702;9.326;2022-07-01T04:20:43;16.50;99.90
7844;DHT22;3967;48.702;9.326;2022-07-01T04:23:30;16.70;99.90
7844;DHT22;3967;48.702;9.326;2022-07-01T04:25:56;16.50;99.90
7844;DHT22;3967;48.702;9.326;2022-07-01T04:28:44;16.60;99.90
7844;DHT22;3967;48.702;9.326;2022-07-01T04:31:10;16.70;99.90
7844;DHT22;3967;48.702;9.326;2022-07-01T04:33:37;16.70;99.90
7844;DHT22;3967;48.702;9.326;2022-07-01T04:36:04;16.60;99.90
7844;DHT22;3967;48.702;9.326;2022-07-01T04:38:31;16.60;99.90
7844;DHT22;3967;48.702;9.326;2022-07-01T04:40:57;16.50;99.90
7844;DHT22;3967;48.702;9.326;2022-07-01T04:43:43;16.20;99.90
7844;DHT22;3967;48.702;9.326;2022-07-01T04:46:10;16.20;99.90
7844;DHT22;3967;48.702;9.326;2022-07-01T04:48:39;16.40;99.90
7844;DHT22;3967;48.702;9.326;2022-07-01T04:51:07;16.30;99.90
7844;DHT22;3967;48.702;9.326;2022-07-01T04:53:34;16.30;99.90
7844;DHT22;3967;48.702;9.326;2022-07-01T04:56:00;16.10;99.90
7844;DHT22;3967;48.702;9.326;2022-07-01T04:58:27;16.20;99.90
7844;DHT22;3967;48.702;9.326;2022-07-01T05:00:54;16.30;99.90
7844;DHT22;3967;48.702;9.326;2022-07-01T05:03:21;16.40;99.90
7844;DHT22;3967;48.702;9.326;2022-07-01T05:05:48;16.40;99.90
7844;DHT22;3967;48.702;9.326;2022-07-01T05:08:14;16.40;99.90
7844;DHT22;3967;48.702;9.326;2022-07-01T05:10:41;16.20;99.90
7844;DHT22;3967;48.702;9.326;2022-07-01T05:13:08;16.20;99.90
7844;DHT22;3967;48.702;9.326;2022-07-01T05:15:35;16.20;99.90
7844;DHT22;3967;48.702;9.326;2022-07-01T05:18:02;16.10;99.90
7844;DHT22;3967;48.702;9.326;2022-07-01T05:20:47;16.10;99.90
7844;DHT22;3967;48.702;9.326;2022-07-01T05:23:36;16.40;99.90
7844;DHT22;3967;48.702;9.326;2022-07-01T05:26:03;16.40;99.90
7844;DHT22;3967;48.702;9.326;2022-07-01T05:28:30;16.10;99.90
7844;DHT22;3967;48.702;9.326;2022-07-01T05:30:57;16.00;99.90
7844;DHT22;3967;48.702;9.326;2022-07-01T05:33:24;16.00;99.90
7844;DHT22;3967;48.702;9.326;2022-07-01T05:35:54;15.90;99.90
7844;DHT22;3967;48.702;9.326;2022-07-01T05:38:21;15.90;99.90
7844;DHT22;3967;48.702;9.326;2022-07-01T05:40:48;15.90;99.90
7844;DHT22;3967;48.702;9.326;2022-07-01T05:43:15;15.90;99.90
7844;DHT22;3967;48.702;9.326;2022-07-01T05:45:41;16.00;99.90
7844;DHT22;3967;48.702;9.326;2022-07-01T05:48:08;16.00;99.90
7844;DHT22;3967;48.702;9.326;2022-07-01T05:50:35;16.10;99.90
7844;DHT22;3967;48.702;9.326;2022-07-01T05:53:02;16.00;99.90
7844;DHT22;3967;48.702;9.326;2022-07-01T05:55:29;16.10;99.90
7844;DHT22;3967;48.702;9.326;2022-07-01T05:57:56;16.00;99.90
7844;DHT22;3967;48.702;9.326;2022-07-01T06:00:22;15.90;99.90
7844;DHT22;3967;48.702;9.326;2022-07-01T06:02:49;15.80;99.90
7844;DHT22;3967;48.702;9.326;2022-07-01T06:05:16;15.80;99.90
7844;DHT22;3967;48.702;9.326;2022-07-01T06:07:43;15.70;99.90
7844;DHT22;3967;48.702;9.326;2022-07-01T06:10:10;15.70;99.90
7844;DHT22;3967;48.702;9.326;2022-07-01T06:12:40;15.60;99.90
7844;DHT22;3967;48.702;9.326;2022-07-01T06:15:09;15.90;99.90
7844;DHT22;3967;48.702;9.326;2022-07-01T06:17:38;15.90;99.90
7844;DHT22;3967;48.702;9.326;2022-07-01T06:20:06;16.00;99.90
7844;DHT22;3967;48.702;9.326;2022-07-01T06:22:34;16.20;99.90
7844;DHT22;3967;48.702;9.326;2022-07-01T06:25:02;16.20;99.90
7844;DHT22;3967;48.702;9.326;2022-07-01T06:27:29;16.20;99.90
7844;DHT22;3967;48.702;9.326;2022-07-01T06:29:56;16.20;99.90
7844;DHT22;3967;48.702;9.326;2022-07-01T06:32:22;16.20;99.90
7844;DHT22;3967;48.702;9.326;2022-07-01T06:34:49;16.20;99.90
7844;DHT22;3967;48.702;9.326;2022-07-01T06:37:16;16.40;99.90
7844;DHT22;3967;48.702;9.326;2022-07-01T06:39:43;16.30;99.90
7844;DHT22;3967;48.702;9.326;2022-07-01T06:42:09;16.30;99.90
7844;DHT22;3967;48.702;9.326;2022-07-01T06:44:36;16.20;99.90
7844;DHT22;3967;48.702;9.326;2022-07-01T06:47:03;16.10;99.90
7844;DHT22;3967;48.702;9.326;2022-07-01T06:49:30;15.90;99.90
7844;DHT22;3967;48.702;9.326;2022-07-01T06:51:57;15.90;99.90
7844;DHT22;3967;48.702;9.326;2022-07-01T06:54:23;16.00;99.90
7844;DHT22;3967;48.702;9.326;2022-07-01T06:56:50;16.10;99.90
7844;DHT22;3967;48.702;9.326;2022-07-01T06:59:17;16.20;99.90
7844;DHT22;3967;48.702;9.326;2022-07-01T07:01:44;16.30;99.90
7844;DHT22;3967;48.702;9.326;2022-07-01T07:04:11;16.40;99.90
7844;DHT22;3967;48.702;9.326;2022-07-01T07:06:37;16.30;99.90
7844;DHT22;3967;48.702;9.326;2022-07-01T07:09:04;16.20;99.90
7844;DHT22;3967;48.702;9.326;2022-07-01T07:11:31;16.30;99.90
7844;DHT22;3967;48.702;9.326;2022-07-01T07:13:58;16.20;99.90
7844;DHT22;3967;48.702;9.326;2022-07-01T07:16:24;16.30;99.90
7844;DHT22;3967;48.702;9.326;2022-07-01T07:18:53;16.40;99.90
7844;DHT22;3967;48.702;9.326;2022-07-01T07:21:19;16.40;99.90
7844;DHT22;3967;48.702;9.326;2022-07-01T07:23:46;16.50;99.90
7844;DHT22;3967;48.702;9.326;2022-07-01T07:26:13;16.50;99.90
7844;DHT22;3967;48.702;9.326;2022-07-01T07:28:40;16.60;99.90
7844;DHT22;3967;48.702;9.326;2022-07-01T07:31:09;16.40;99.90
7844;DHT22;3967;48.702;9.326;2022-07-01T07:33:36;16.60;99.90
7844;DHT22;3967;48.702;9.326;2022-07-01T07:36:03;16.70;99.90
7844;DHT22;3967;48.702;9.326;2022-07-01T07:38:30;16.60;99.90
7844;DHT22;3967;48.702;9.326;2022-07-01T07:40:57;16.60;99.90
7844;DHT22;3967;48.702;9.326;2022-07-01T07:43:27;16.60;99.90
7844;DHT22;3967;48.702;9.326;2022-07-01T07:45:54;16.70;99.90
7844;DHT22;3967;48.702;9.326;2022-07-01T07:48:21;16.60;99.90
7844;DHT22;3967;48.702;9.326;2022-07-01T07:50:47;16.50;99.90
7844;DHT22;3967;48.702;9.326;2022-07-01T07:53:14;16.50;99.90
7844;DHT22;3967;48.702;9.326;2022-07-01T07:55:41;16.60;99.90
7844;DHT22;3967;48.702;9.326;2022-07-01T07:58:08;16.60;99.90
7844;DHT22;3967;48.702;9.326;2022-07-01T08:00:35;16.60;99.90
7844;DHT22;3967;48.702;9.326;2022-07-01T08:03:06;16.50;99.90
7844;DHT22;3967;48.702;9.326;2022-07-01T08:05:33;16.60;99.90
7844;DHT22;3967;48.702;9.326;2022-07-01T08:07:59;16.60;99.90
7844;DHT22;3967;48.702;9.326;2022-07-01T08:10:26;16.70;99.90
7844;DHT22;3967;48.702;9.326;2022-07-01T08:12:53;16.70;99.90
7844;DHT22;3967;48.702;9.326;2022-07-01T08:15:20;16.70;99.90
7844;DHT22;3967;48.702;9.326;2022-07-01T08:17:46;16.60;99.90
7844;DHT22;3967;48.702;9.326;2022-07-01T08:20:15;16.70;99.90
7844;DHT22;3967;48.702;9.326;2022-07-01T08:22:48;16.70;99.90
7844;DHT22;3967;48.702;9.326;2022-07-01T08:25:15;16.80;99.90
7844;DHT22;3967;48.702;9.326;2022-07-01T08:27:42;16.90;99.90
7844;DHT22;3967;48.702;9.326;2022-07-01T08:30:09;16.90;99.90
7844;DHT22;3967;48.702;9.326;2022-07-01T08:32:36;16.90;99.90
7844;DHT22;3967;48.702;9.326;2022-07-01T08:35:03;16.90;99.90
7844;DHT22;3967;48.702;9.326;2022-07-01T08:37:29;17.00;99.90
7844;DHT22;3967;48.702;9.326;2022-07-01T08:39:56;16.80;99.90
7844;DHT22;3967;48.702;9.326;2022-07-01T08:42:23;17.00;99.90
7844;DHT22;3967;48.702;9.326;2022-07-01T08:44:49;16.90;99.90
7844;DHT22;3967;48.702;9.326;2022-07-01T08:47:16;17.00;99.90
7844;DHT22;3967;48.702;9.326;2022-07-01T08:49:43;17.00;99.90
7844;DHT22;3967;48.702;9.326;2022-07-01T08:52:10;16.90;99.90
7844;DHT22;3967;48.702;9.326;2022-07-01T08:54:37;17.00;99.90
7844;DHT22;3967;48.702;9.326;2022-07-01T08:57:06;17.00;99.90
7844;DHT22;3967;48.702;9.326;2022-07-01T08:59:34;17.00;99.90
7844;DHT22;3967;48.702;9.326;2022-07-01T09:02:03;16.90;99.90
7844;DHT22;3967;48.702;9.326;2022-07-01T09:04:31;16.90;99.90
7844;DHT22;3967;48.702;9.326;2022-07-01T09:07:05;16.80;99.90
7844;DHT22;3967;48.702;9.326;2022-07-01T09:09:36;16.90;99.90
7844;DHT22;3967;48.702;9.326;2022-07-01T09:12:04;16.80;99.90
7844;DHT22;3967;48.702;9.326;2022-07-01T09:14:34;16.80;99.90
7844;DHT22;3967;48.702;9.326;2022-07-01T09:17:04;16.90;99.90
7844;DHT22;3967;48.702;9.326;2022-07-01T09:19:34;17.00;99.90
7844;DHT22;3967;48.702;9.326;2022-07-01T09:22:02;17.00;99.90
7844;DHT22;3967;48.702;9.326;2022-07-01T09:27:01;16.90;99.90
7844;DHT22;3967;48.702;9.326;2022-07-01T09:29:34;17.00;99.90
7844;DHT22;3967;48.702;9.326;2022-07-01T09:32:04;17.10;99.90
7844;DHT22;3967;48.702;9.326;2022-07-01T09:34:40;17.00;99.90
7844;DHT22;3967;48.702;9.326;2022-07-01T09:37:17;17.10;99.90
7844;DHT22;3967;48.702;9.326;2022-07-01T09:39:47;17.00;99.90
7844;DHT22;3967;48.702;9.326;2022-07-01T09:42:19;17.00;99.90
7844;DHT22;3967;48.702;9.326;2022-07-01T09:47:29;16.70;99.90
7844;DHT22;3967;48.702;9.326;2022-07-01T09:49:57;16.80;99.90
7844;DHT22;3967;48.702;9.326;2022-07-01T09:52:24;16.80;99.90
7844;DHT22;3967;48.702;9.326;2022-07-01T09:54:51;16.80;99.90
7844;DHT22;3967;48.702;9.326;2022-07-01T09:57:19;16.70;99.90
7844;DHT22;3967;48.702;9.326;2022-07-01T09:59:48;16.80;99.90
7844;DHT22;3967;48.702;9.326;2022-07-01T10:02:20;16.80;99.90
7844;DHT22;3967;48.702;9.326;2022-07-01T10:05:08;16.90;99.90
7844;DHT22;3967;48.702;9.326;2022-07-01T10:07:42;16.80;99.90
7844;DHT22;3967;48.702;9.326;2022-07-01T10:13:02;16.90;99.90
7844;DHT22;3967;48.702;9.326;2022-07-01T10:15:29;16.80;99.90
7844;DHT22;3967;48.702;9.326;2022-07-01T10:17:56;16.70;99.90
7844;DHT22;3967;48.702;9.326;2022-07-01T10:23:00;16.60;99.90
7844;DHT22;3967;48.702;9.326;2022-07-01T10:28:28;16.70;99.90
7844;DHT22;3967;48.702;9.326;2022-07-01T10:31:03;16.80;99.90
7844;DHT22;3967;48.702;9.326;2022-07-01T10:36:51;16.80;99.90
7844;DHT22;3967;48.702;9.326;2022-07-01T10:41:37;16.80;99.90
7844;DHT22;3967;48.702;9.326;2022-07-01T10:44:09;16.80;99.90
7844;DHT22;3967;48.702;9.326;2022-07-01T10:54:09;16.80;99.90
7844;DHT22;3967;48.702;9.326;2022-07-01T10:56:40;16.80;99.90
7844;DHT22;3967;48.702;9.326;2022-07-01T10:59:07;16.90;99.90
7844;DHT22;3967;48.702;9.326;2022-07-01T11:01:34;17.00;99.90
7844;DHT22;3967;48.702;9.326;2022-07-01T11:04:01;16.90;99.90
7844;DHT22;3967;48.702;9.326;2022-07-01T11:06:28;17.00;99.90
7844;DHT22;3967;48.702;9.326;2022-07-01T11:08:55;17.20;99.90
7844;DHT22;3967;48.702;9.326;2022-07-01T11:11:22;17.20;99.90
7844;DHT22;3967;48.702;9.326;2022-07-01T11:13:50;17.10;99.90
7844;DHT22;3967;48.702;9.326;2022-07-01T11:16:17;17.40;99.90
7844;DHT22;3967;48.702;9.326;2022-07-01T11:18:44;17.40;99.90
7844;DHT22;3967;48.702;9.326;2022-07-01T11:21:11;17.40;99.90
7844;DHT22;3967;48.702;9.326;2022-07-01T11:23:38;17.50;99.90
7844;DHT22;3967;48.702;9.326;2022-07-01T11:26:20;17.50;99.90
7844;DHT22;3967;48.702;9.326;2022-07-01T11:28:47;17.60;99.90
7844;DHT22;3967;48.702;9.326;2022-07-01T11:31:14;17.80;99.90
7844;DHT22;3967;48.702;9.326;2022-07-01T11:33:41;17.80;99.90
7844;DHT22;3967;48.702;9.326;2022-07-01T11:36:15;17.70;99.90
7844;DHT22;3967;48.702;9.326;2022-07-01T11:39:00;17.90;99.90
7844;DHT22;3967;48.702;9.326;2022-07-01T11:41:45;17.90;99.90
7844;DHT22;3967;48.702;9.326;2022-07-01T11:44:12;17.80;99.90
7844;DHT22;3967;48.702;9.326;2022-07-01T11:46:39;17.80;99.90
7844;DHT22;3967;48.702;9.326;2022-07-01T11:49:12;17.80;99.90
7844;DHT22;3967;48.702;9.326;2022-07-01T11:51:39;17.50;99.90
7844;DHT22;3967;48.702;9.326;2022-07-01T11:54:06;17.60;99.90
7844;DHT22;3967;48.702;9.326;2022-07-01T11:56:35;17.50;99.90
7844;DHT22;3967;48.702;9.326;2022-07-01T11:59:05;17.60;99.90
7844;DHT22;3967;48.702;9.326;2022-07-01T12:01:33;17.50;99.90
7844;DHT22;3967;48.702;9.326;2022-07-01T12:04:09;17.30;99.90
7844;DHT22;3967;48.702;9.326;2022-07-01T12:06:37;17.30;99.90
7844;DHT22;3967;48.702;9.326;2022-07-01T12:09:15;17.40;99.90
7844;DHT22;3967;48.702;9.326;2022-07-01T12:11:47;17.50;99.90
7844;DHT22;3967;48.702;9.326;2022-07-01T12:14:24;17.50;99.90
7844;DHT22;3967;48.702;9.326;2022-07-01T12:16:54;17.70;99.90
7844;DHT22;3967;48.702;9.326;2022-07-01T12:19:48;17.70;99.90
7844;DHT22;3967;48.702;9.326;2022-07-01T12:22:20;17.70;99.90
7844;DHT22;3967;48.702;9.326;2022-07-01T12:24:47;17.70;99.90
7844;DHT22;3967;48.702;9.326;2022-07-01T12:27:15;17.70;99.90
7844;DHT22;3967;48.702;9.326;2022-07-01T12:34:50;17.70;99.40
7844;DHT22;3967;48.702;9.326;2022-07-01T12:37:19;17.80;99.30
7844;DHT22;3967;48.702;9.326;2022-07-01T12:39:49;17.80;99.70
7844;DHT22;3967;48.702;9.326;2022-07-01T12:44:58;18.20;99.90
7844;DHT22;3967;48.702;9.326;2022-07-01T12:47:31;18.50;99.90
7844;DHT22;3967;48.702;9.326;2022-07-01T12:52:38;18.50;98.40
7844;DHT22;3967;48.702;9.326;2022-07-01T12:55:19;18.50;97.20
7844;DHT22;3967;48.702;9.326;2022-07-01T12:57:48;18.50;98.60
7844;DHT22;3967;48.702;9.326;2022-07-01T13:00:20;18.50;96.50
7844;DHT22;3967;48.702;9.326;2022-07-01T13:02:51;18.60;96.80
7844;DHT22;3967;48.702;9.326;2022-07-01T13:05:18;18.70;97.00
7844;DHT22;3967;48.702;9.326;2022-07-01T13:07:45;18.80;96.90
7844;DHT22;3967;48.702;9.326;2022-07-01T13:10:13;18.80;96.90
7844;DHT22;3967;48.702;9.326;2022-07-01T13:12:41;18.70;96.90
7844;DHT22;3967;48.702;9.326;2022-07-01T13:15:08;18.70;97.40
7844;DHT22;3967;48.702;9.326;2022-07-01T13:17:35;18.80;95.90
7844;DHT22;3967;48.702;9.326;2022-07-01T13:20:05;18.80;96.90
7844;DHT22;3967;48.702;9.326;2022-07-01T13:22:32;18.80;96.10
7844;DHT22;3967;48.702;9.326;2022-07-01T13:24:59;19.00;95.10
7844;DHT22;3967;48.702;9.326;2022-07-01T13:27:26;19.10;94.00
7844;DHT22;3967;48.702;9.326;2022-07-01T13:29:52;19.00;95.50
7844;DHT22;3967;48.702;9.326;2022-07-01T13:32:19;19.00;96.00
7844;DHT22;3967;48.702;9.326;2022-07-01T13:34:46;19.10;95.00
7844;DHT22;3967;48.702;9.326;2022-07-01T13:37:13;19.20;95.00
7844;DHT22;3967;48.702;9.326;2022-07-01T13:39:40;19.10;95.70
7844;DHT22;3967;48.702;9.326;2022-07-01T13:42:08;19.10;95.70
7844;DHT22;3967;48.702;9.326;2022-07-01T13:44:35;19.00;94.20
7844;DHT22;3967;48.702;9.326;2022-07-01T13:47:02;19.10;94.10
7844;DHT22;3967;48.702;9.326;2022-07-01T13:49:31;19.10;93.50
7844;DHT22;3967;48.702;9.326;2022-07-01T13:51:58;19.10;94.70
7844;DHT22;3967;48.702;9.326;2022-07-01T13:54:25;19.00;96.00
7844;DHT22;3967;48.702;9.326;2022-07-01T13:56:52;18.90;95.40
7844;DHT22;3967;48.702;9.326;2022-07-01T13:59:19;19.00;95.20
7844;DHT22;3967;48.702;9.326;2022-07-01T14:01:46;19.00;94.50
7844;DHT22;3967;48.702;9.326;2022-07-01T14:04:12;19.20;95.70
7844;DHT22;3967;48.702;9.326;2022-07-01T14:06:39;19.10;94.80
7844;DHT22;3967;48.702;9.326;2022-07-01T14:09:06;18.90;94.20
7844;DHT22;3967;48.702;9.326;2022-07-01T14:11:33;19.00;95.00
7844;DHT22;3967;48.702;9.326;2022-07-01T14:14:00;19.10;93.80
7844;DHT22;3967;48.702;9.326;2022-07-01T14:16:27;19.10;93.60
7844;DHT22;3967;48.702;9.326;2022-07-01T14:18:57;18.90;92.70
7844;DHT22;3967;48.702;9.326;2022-07-01T14:21:25;19.10;91.90
7844;DHT22;3967;48.702;9.326;2022-07-01T14:23:51;19.30;93.00
7844;DHT22;3967;48.702;9.326;2022-07-01T14:26:22;19.40;91.70
7844;DHT22;3967;48.702;9.326;2022-07-01T14:28:49;19.50;91.40
7844;DHT22;3967;48.702;9.326;2022-07-01T14:31:16;19.50;90.00
7844;DHT22;3967;48.702;9.326;2022-07-01T14:33:43;19.50;91.80
7844;DHT22;3967;48.702;9.326;2022-07-01T14:36:09;19.60;91.50
7844;DHT22;3967;48.702;9.326;2022-07-01T14:38:36;19.60;91.90
7844;DHT22;3967;48.702;9.326;2022-07-01T14:41:03;19.40;91.40
7844;DHT22;3967;48.702;9.326;2022-07-01T14:43:30;19.50;90.50
7844;DHT22;3967;48.702;9.326;2022-07-01T14:45:58;19.60;91.00
7844;DHT22;3967;48.702;9.326;2022-07-01T14:48:25;19.60;90.40
7844;DHT22;3967;48.702;9.326;2022-07-01T14:50:52;19.60;90.70
7844;DHT22;3967;48.702;9.326;2022-07-01T14:53:19;19.50;90.70
7844;DHT22;3967;48.702;9.326;2022-07-01T14:55:45;19.70;89.60
7844;DHT22;3967;48.702;9.326;2022-07-01T14:58:12;19.80;88.90
7844;DHT22;3967;48.702;9.326;2022-07-01T15:00:39;19.90;90.80
7844;DHT22;3967;48.702;9.326;2022-07-01T15:03:06;19.70;89.20
7844;DHT22;3967;48.702;9.326;2022-07-01T15:05:33;19.70;89.70
7844;DHT22;3967;48.702;9.326;2022-07-01T15:08:00;20.00;89.50
7844;DHT22;3967;48.702;9.326;2022-07-01T15:10:27;19.90;90.50
7844;DHT22;3967;48.702;9.326;2022-07-01T15:12:54;19.80;90.00
7844;DHT22;3967;48.702;9.326;2022-07-01T15:15:21;19.80;90.00
7844;DHT22;3967;48.702;9.326;2022-07-01T15:17:47;19.80;90.00
7844;DHT22;3967;48.702;9.326;2022-07-01T15:20:15;19.80;88.80
7844;DHT22;3967;48.702;9.326;2022-07-01T15:22:43;19.90;88.90
7844;DHT22;3967;48.702;9.326;2022-07-01T15:25:10;20.10;87.20
7844;DHT22;3967;48.702;9.326;2022-07-01T15:27:37;20.00;87.40
7844;DHT22;3967;48.702;9.326;2022-07-01T15:30:04;19.90;88.20
7844;DHT22;3967;48.702;9.326;2022-07-01T15:32:34;20.00;88.80
7844;DHT22;3967;48.702;9.326;2022-07-01T15:35:02;20.00;87.70
7844;DHT22;3967;48.702;9.326;2022-07-01T15:37:32;20.00;86.70
7844;DHT22;3967;48.702;9.326;2022-07-01T15:39:59;20.10;87.10
7844;DHT22;3967;48.702;9.326;2022-07-01T15:42:29;20.20;87.00
7844;DHT22;3967;48.702;9.326;2022-07-01T15:44:56;20.40;86.50
7844;DHT22;3967;48.702;9.326;2022-07-01T15:47:23;20.40;86.20
7844;DHT22;3967;48.702;9.326;2022-07-01T15:50:09;20.20;85.10
7844;DHT22;3967;48.702;9.326;2022-07-01T15:52:36;20.30;83.70
7844;DHT22;3967;48.702;9.326;2022-07-01T15:55:06;20.50;85.10
7844;DHT22;3967;48.702;9.326;2022-07-01T15:57:33;20.40;85.30
7844;DHT22;3967;48.702;9.326;2022-07-01T16:00:00;20.60;88.10
7844;DHT22;3967;48.702;9.326;2022-07-01T16:02:26;20.60;85.50
7844;DHT22;3967;48.702;9.326;2022-07-01T16:04:53;20.60;84.90
7844;DHT22;3967;48.702;9.326;2022-07-01T16:07:22;20.70;84.90
7844;DHT22;3967;48.702;9.326;2022-07-01T16:10:51;20.60;84.10
7844;DHT22;3967;48.702;9.326;2022-07-01T16:13:02;20.80;82.90
7844;DHT22;3967;48.702;9.326;2022-07-01T16:15:33;20.70;81.60
7844;DHT22;3967;48.702;9.326;2022-07-01T16:18:07;20.90;84.90
7844;DHT22;3967;48.702;9.326;2022-07-01T16:20:42;20.90;82.50
7844;DHT22;3967;48.702;9.326;2022-07-01T16:23:12;20.90;81.70
7844;DHT22;3967;48.702;9.326;2022-07-01T16:25:40;20.80;82.30
7844;DHT22;3967;48.702;9.326;2022-07-01T16:28:09;20.60;79.80
7844;DHT22;3967;48.702;9.326;2022-07-01T16:30:40;20.80;80.50
7844;DHT22;3967;48.702;9.326;2022-07-01T16:33:07;21.00;80.80
7844;DHT22;3967;48.702;9.326;2022-07-01T16:35:50;21.00;80.20
7844;DHT22;3967;48.702;9.326;2022-07-01T16:38:28;20.80;81.30
7844;DHT22;3967;48.702;9.326;2022-07-01T16:41:13;20.70;81.00
7844;DHT22;3967;48.702;9.326;2022-07-01T16:43:46;20.80;81.70
7844;DHT22;3967;48.702;9.326;2022-07-01T16:46:17;20.90;80.80
7844;DHT22;3967;48.702;9.326;2022-07-01T16:48:49;20.90;83.30